sensor_id;sensor_type;location;lat;lon;timestamp;pressure;altitude;pressure_sealevel;temperature;humidity
33404;BME280;19751;40.274;18.268;2023-04-05T00:01:29;100879.47;;;8.67;98.96
33404;BME280;19751;40.274;18.268;2023-04-05T00:03:55;100871.09;;;8.62;98.16
33404;BME280;19751;40.274;18.268;2023-04-05T00:06:25;100886.53;;;8.60;98.55
33404;BME280;19751;40.274;18.268;2023-04-05T00:09:01;100877.97;;;8.64;99.22
33404;BME280;19751;40.274;18.268;2023-04-05T00:11:29;100881.50;;;8.65;98.40
33404;BME280;19751;40.274;18.268;2023-04-05T00:13:56;100875.28;;;8.64;97.28
33404;BME280;19751;40.274;18.268;2023-04-05T00:16:21;100875.47;;;8.63;97.38
33404;BME280;19751;40.274;18.268;2023-04-05T00:18:47;100874.78;;;8.61;97.42
33404;BME280;19751;40.274;18.268;2023-04-05T00:21:21;100876.31;;;8.63;96.46
33404;BME280;19751;40.274;18.268;2023-04-05T00:23:52;100877.97;;;8.64;96.11
33404;BME280;19751;40.274;18.268;2023-04-05T00:26:18;100873.25;;;8.66;95.21
33404;BME280;19751;40.274;18.268;2023-04-05T00:28:44;100863.50;;;8.74;95.25
33404;BME280;19751;40.274;18.268;2023-04-05T00:31:10;100869.34;;;8.77;94.69
33404;BME280;19751;40.274;18.268;2023-04-05T00:33:36;100871.31;;;8.83;93.42
33404;BME280;19751;40.274;18.268;2023-04-05T00:36:15;100874.88;;;8.84;92.70
33404;BME280;19751;40.274;18.268;2023-04-05T00:38:42;100872.19;;;8.84;92.51
33404;BME280;19751;40.274;18.268;2023-04-05T00:41:09;100865.47;;;8.88;92.93
33404;BME280;19751;40.274;18.268;2023-04-05T00:43:35;100872.50;;;8.89;92.18
33404;BME280;19751;40.274;18.268;2023-04-05T00:46:01;100875.34;;;8.87;92.82
33404;BME280;19751;40.274;18.268;2023-04-05T00:48:27;100871.19;;;8.85;92.08
33404;BME280;19751;40.274;18.268;2023-04-05T00:50:53;100863.66;;;8.80;90.93
33404;BME280;19751;40.274;18.268;2023-04-05T00:53:20;100866.44;;;8.87;91.35
33404;BME280;19751;40.274;18.268;2023-04-05T00:55:46;100859.06;;;8.89;91.17
33404;BME280;19751;40.274;18.268;2023-04-05T00:58:12;100860.78;;;8.82;91.21
33404;BME280;19751;40.274;18.268;2023-04-05T01:00:38;100862.44;;;8.83;91.37
33404;BME280;19751;40.274;18.268;2023-04-05T01:03:05;100864.97;;;8.84;91.61
33404;BME280;19751;40.274;18.268;2023-04-05T01:08:11;100858.88;;;8.90;92.34
33404;BME280;19751;40.274;18.268;2023-04-05T01:10:43;100863.91;;;8.93;91.58
33404;BME280;19751;40.274;18.268;2023-04-05T01:13:10;100860.88;;;8.96;91.57
33404;BME280;19751;40.274;18.268;2023-04-05T01:15:36;100860.00;;;9.04;91.40
33404;BME280;19751;40.274;18.268;2023-04-05T01:18:01;100858.50;;;9.02;90.60
33404;BME280;19751;40.274;18.268;2023-04-05T01:20:33;100865.19;;;9.06;91.22
33404;BME280;19751;40.274;18.268;2023-04-05T01:32:38;100862.78;;;8.88;93.69
33404;BME280;19751;40.274;18.268;2023-04-05T01:35:26;100862.94;;;8.86;94.66
33404;BME280;19751;40.274;18.268;2023-04-05T01:37:58;100866.63;;;8.85;94.77
33404;BME280;19751;40.274;18.268;2023-04-05T01:40:25;100868.31;;;8.86;94.95
33404;BME280;19751;40.274;18.268;2023-04-05T01:42:51;100865.47;;;8.88;94.87
33404;BME280;19751;40.274;18.268;2023-04-05T01:45:16;100862.59;;;8.89;94.88
33404;BME280;19751;40.274;18.268;2023-04-05T01:47:41;100862.94;;;8.86;94.44
33404;BME280;19751;40.274;18.268;2023-04-05T01:50:07;100864.97;;;8.84;94.23
33404;BME280;19751;40.274;18.268;2023-04-05T01:52:33;100860.97;;;8.80;93.40
33404;BME280;19751;40.274;18.268;2023-04-05T01:54:58;100863.66;;;8.80;93.61
33404;BME280;19751;40.274;18.268;2023-04-05T01:57:24;100860.44;;;8.85;93.73
33404;BME280;19751;40.274;18.268;2023-04-05T01:59:49;100853.69;;;8.89;93.18
33404;BME280;19751;40.274;18.268;2023-04-05T02:02:15;100859.06;;;8.89;92.67
33404;BME280;19751;40.274;18.268;2023-04-05T02:04:40;100857.84;;;8.91;93.14
33404;BME280;19751;40.274;18.268;2023-04-05T02:07:06;100856.69;;;8.94;93.39
33404;BME280;19751;40.274;18.268;2023-04-05T02:09:32;100864.41;;;8.97;93.26
33404;BME280;19751;40.274;18.268;2023-04-05T02:11:57;100867.91;;;8.98;92.98
33404;BME280;19751;40.274;18.268;2023-04-05T02:14:23;100868.09;;;8.96;93.01
33404;BME280;19751;40.274;18.268;2023-04-05T02:16:49;100869.09;;;8.95;93.21
33404;BME280;19751;40.274;18.268;2023-04-05T02:19:15;100872.50;;;8.89;92.88
33404;BME280;19751;40.274;18.268;2023-04-05T02:21:50;100866.81;;;8.84;93.10
33404;BME280;19751;40.274;18.268;2023-04-05T02:24:18;100872.72;;;8.79;93.63
33404;BME280;19751;40.274;18.268;2023-04-05T02:26:43;100876.41;;;8.78;94.55
33404;BME280;19751;40.274;18.268;2023-04-05T02:29:09;100882.13;;;8.75;95.44
33404;BME280;19751;40.274;18.268;2023-04-05T02:31:35;100889.03;;;8.69;95.54
33404;BME280;19751;40.274;18.268;2023-04-05T02:34:00;100884.47;;;8.70;95.87
33404;BME280;19751;40.274;18.268;2023-04-05T02:36:26;100886.19;;;8.71;95.95
33404;BME280;19751;40.274;18.268;2023-04-05T02:38:53;100880.13;;;8.69;94.99
33404;BME280;19751;40.274;18.268;2023-04-05T02:41:18;100885.81;;;8.74;94.28
33404;BME280;19751;40.274;18.268;2023-04-05T02:43:44;100893.56;;;8.69;94.72
33404;BME280;19751;40.274;18.268;2023-04-05T02:46:10;100885.50;;;8.69;94.77
33404;BME280;19751;40.274;18.268;2023-04-05T02:48:37;100893.22;;;8.72;95.08
33404;BME280;19751;40.274;18.268;2023-04-05T02:51:02;100890.03;;;8.68;94.75
33404;BME280;19751;40.274;18.268;2023-04-05T02:53:28;100885.69;;;8.67;94.90
33404;BME280;19751;40.274;18.268;2023-04-05T02:55:54;100900.25;;;8.73;94.96
33404;BME280;19751;40.274;18.268;2023-04-05T02:58:21;100894.53;;;8.76;93.59
33404;BME280;19751;40.274;18.268;2023-04-05T03:00:48;100892.88;;;8.75;93.64
33404;BME280;19751;40.274;18.268;2023-04-05T03:03:18;100886.50;;;8.76;92.84
33404;BME280;19751;40.274;18.268;2023-04-05T03:05:45;100884.63;;;8.77;92.79
33404;BME280;19751;40.274;18.268;2023-04-05T03:08:13;100880.78;;;8.79;92.48
33404;BME280;19751;40.274;18.268;2023-04-05T03:10:46;100886.78;;;8.81;91.42
33404;BME280;19751;40.274;18.268;2023-04-05T03:13:13;100894.34;;;8.78;91.11
33404;BME280;19751;40.274;18.268;2023-04-05T03:15:39;100896.06;;;8.70;91.11
33404;BME280;19751;40.274;18.268;2023-04-05T03:18:05;100897.91;;;8.70;91.79
33404;BME280;19751;40.274;18.268;2023-04-05T03:20:31;100901.44;;;8.70;91.55
33404;BME280;19751;40.274;18.268;2023-04-05T03:22:58;100903.63;;;8.75;91.48
33404;BME280;19751;40.274;18.268;2023-04-05T03:25:24;100900.94;;;8.75;91.02
33404;BME280;19751;40.274;18.268;2023-04-05T03:27:49;100900.44;;;8.71;90.62
33404;BME280;19751;40.274;18.268;2023-04-05T03:30:17;100903.66;;;8.67;90.34
33404;BME280;19751;40.274;18.268;2023-04-05T03:32:42;100906.34;;;8.67;90.59
33404;BME280;19751;40.274;18.268;2023-04-05T03:35:08;100905.84;;;8.63;90.52
33404;BME280;19751;40.274;18.268;2023-04-05T03:37:33;100913.53;;;8.66;90.05
33404;BME280;19751;40.274;18.268;2023-04-05T03:39:59;100917.22;;;8.65;89.95
33404;BME280;19751;40.274;18.268;2023-04-05T03:42:24;100911.03;;;8.65;90.49
33404;BME280;19751;40.274;18.268;2023-04-05T03:44:51;100910.00;;;8.66;90.69
33404;BME280;19751;40.274;18.268;2023-04-05T03:47:18;100913.72;;;8.65;90.69
33404;BME280;19751;40.274;18.268;2023-04-05T03:49:44;100906.34;;;8.67;90.53
33404;BME280;19751;40.274;18.268;2023-04-05T03:52:09;100917.38;;;8.72;90.65
33404;BME280;19751;40.274;18.268;2023-04-05T03:54:34;100915.34;;;8.74;90.69
33404;BME280;19751;40.274;18.268;2023-04-05T03:57:01;100915.34;;;8.74;90.13
33404;BME280;19751;40.274;18.268;2023-04-05T03:59:27;100917.72;;;8.69;89.71
33404;BME280;19751;40.274;18.268;2023-04-05T04:01:52;100916.88;;;8.68;89.86
33404;BME280;19751;40.274;18.268;2023-04-05T04:04:18;100914.53;;;8.65;90.02
33404;BME280;19751;40.274;18.268;2023-04-05T04:06:43;100921.75;;;8.65;90.12
33404;BME280;19751;40.274;18.268;2023-04-05T04:09:09;100913.41;;;8.60;89.53
33404;BME280;19751;40.274;18.268;2023-04-05T04:11:35;100918.75;;;8.60;89.71
33404;BME280;19751;40.274;18.268;2023-04-05T04:14:00;100924.13;;;8.60;89.77
33404;BME280;19751;40.274;18.268;2023-04-05T04:16:26;100931.69;;;8.56;88.89
33404;BME280;19751;40.274;18.268;2023-04-05T04:18:51;100925.50;;;8.56;89.47
33404;BME280;19751;40.274;18.268;2023-04-05T04:21:18;100928.66;;;8.59;90.05
33404;BME280;19751;40.274;18.268;2023-04-05T04:23:45;100925.50;;;8.56;90.14
33404;BME280;19751;40.274;18.268;2023-04-05T04:26:11;100926.84;;;8.52;90.38
33404;BME280;19751;40.274;18.268;2023-04-05T04:28:37;100940.91;;;8.54;91.13
33404;BME280;19751;40.274;18.268;2023-04-05T04:31:04;100931.88;;;8.55;91.38
33404;BME280;19751;40.274;18.268;2023-04-05T04:33:29;100943.25;;;8.57;90.53
33404;BME280;19751;40.274;18.268;2023-04-05T04:35:55;100940.41;;;8.58;91.89
33404;BME280;19751;40.274;18.268;2023-04-05T04:38:21;100934.19;;;8.58;91.65
33404;BME280;19751;40.274;18.268;2023-04-05T04:40:50;100936.72;;;8.59;91.46
33404;BME280;19751;40.274;18.268;2023-04-05T04:43:18;100931.34;;;8.59;91.80
33404;BME280;19751;40.274;18.268;2023-04-05T04:45:50;100933.03;;;8.60;92.15
33404;BME280;19751;40.274;18.268;2023-04-05T04:48:19;100928.16;;;8.64;92.28
33404;BME280;19751;40.274;18.268;2023-04-05T04:50:46;100935.38;;;8.63;92.63
33404;BME280;19751;40.274;18.268;2023-04-05T04:53:13;100935.53;;;8.62;92.19
33404;BME280;19751;40.274;18.268;2023-04-05T04:55:41;100932.69;;;8.63;92.67
33404;BME280;19751;40.274;18.268;2023-04-05T04:58:07;100939.22;;;8.69;92.48
33404;BME280;19751;40.274;18.268;2023-04-05T05:00:43;100937.69;;;8.66;92.31
33404;BME280;19751;40.274;18.268;2023-04-05T05:03:09;100939.88;;;8.71;93.00
33404;BME280;19751;40.274;18.268;2023-04-05T05:05:41;100943.06;;;8.66;93.07
33404;BME280;19751;40.274;18.268;2023-04-05T05:08:07;100933.84;;;8.69;93.45
33404;BME280;19751;40.274;18.268;2023-04-05T05:10:32;100935.88;;;8.67;93.80
33404;BME280;19751;40.274;18.268;2023-04-05T05:12:57;100939.53;;;8.66;93.98
33404;BME280;19751;40.274;18.268;2023-04-05T05:15:23;100937.53;;;8.68;94.10
33404;BME280;19751;40.274;18.268;2023-04-05T05:17:48;100940.72;;;8.71;93.97
33404;BME280;19751;40.274;18.268;2023-04-05T05:20:17;100944.25;;;8.72;93.60
33404;BME280;19751;40.274;18.268;2023-04-05T05:22:42;100949.94;;;8.69;93.87
33404;BME280;19751;40.274;18.268;2023-04-05T05:25:08;100955.63;;;8.74;94.11
33404;BME280;19751;40.274;18.268;2023-04-05T05:27:34;100957.16;;;8.77;94.07
33404;BME280;19751;40.274;18.268;2023-04-05T05:30:00;100960.66;;;8.77;93.95
33404;BME280;19751;40.274;18.268;2023-04-05T05:32:26;100954.59;;;8.83;94.70
33404;BME280;19751;40.274;18.268;2023-04-05T05:34:51;100945.56;;;8.84;93.86
33404;BME280;19751;40.274;18.268;2023-04-05T05:37:17;100942.88;;;8.84;93.93
33404;BME280;19751;40.274;18.268;2023-04-05T05:39:42;100947.38;;;8.92;94.47
33404;BME280;19751;40.274;18.268;2023-04-05T05:42:11;100942.66;;;8.94;93.79
33404;BME280;19751;40.274;18.268;2023-04-05T05:44:36;100950.72;;;8.94;94.14
33404;BME280;19751;40.274;18.268;2023-04-05T05:47:02;100948.53;;;8.98;94.44
33404;BME280;19751;40.274;18.268;2023-04-05T05:49:28;100946.31;;;9.01;94.36
33404;BME280;19751;40.274;18.268;2023-04-05T05:51:55;100953.19;;;9.04;94.71
33404;BME280;19751;40.274;18.268;2023-04-05T05:54:21;100950.31;;;9.13;95.10
33404;BME280;19751;40.274;18.268;2023-04-05T05:56:47;100952.81;;;9.15;93.82
33404;BME280;19751;40.274;18.268;2023-04-05T05:59:13;100953.00;;;9.13;93.81
33404;BME280;19751;40.274;18.268;2023-04-05T06:01:38;100960.69;;;9.16;92.08
33404;BME280;19751;40.274;18.268;2023-04-05T06:04:07;100959.84;;;9.16;91.63
33404;BME280;19751;40.274;18.268;2023-04-05T06:06:33;100966.06;;;9.16;93.70
33404;BME280;19751;40.274;18.268;2023-04-05T06:08:59;100965.94;;;9.10;93.17
33404;BME280;19751;40.274;18.268;2023-04-05T06:11:25;100966.44;;;9.13;94.82
33404;BME280;19751;40.274;18.268;2023-04-05T06:13:51;100970.25;;;9.19;94.76
33404;BME280;19751;40.274;18.268;2023-04-05T06:16:17;100974.94;;;9.25;93.89
33404;BME280;19751;40.274;18.268;2023-04-05T06:18:43;100982.63;;;9.28;93.18
33404;BME280;19751;40.274;18.268;2023-04-05T06:21:09;100977.09;;;9.30;93.23
33404;BME280;19751;40.274;18.268;2023-04-05T06:23:34;100972.72;;;9.29;93.58
33404;BME280;19751;40.274;18.268;2023-04-05T06:26:00;100973.41;;;9.31;93.77
33404;BME280;19751;40.274;18.268;2023-04-05T06:28:25;100971.19;;;9.34;92.59
33404;BME280;19751;40.274;18.268;2023-04-05T06:30:52;100969.16;;;9.36;93.51
33404;BME280;19751;40.274;18.268;2023-04-05T06:33:17;100972.53;;;9.38;93.93
33404;BME280;19751;40.274;18.268;2023-04-05T06:35:43;100971.28;;;9.49;94.80
33404;BME280;19751;40.274;18.268;2023-04-05T06:38:08;100964.66;;;9.60;94.36
33404;BME280;19751;40.274;18.268;2023-04-05T06:40:34;100970.34;;;9.65;92.79
33404;BME280;19751;40.274;18.268;2023-04-05T06:43:00;100969.66;;;9.71;92.65
33404;BME280;19751;40.274;18.268;2023-04-05T06:45:25;100966.41;;;9.76;92.31
33404;BME280;19751;40.274;18.268;2023-04-05T06:47:51;100969.66;;;9.71;91.55
33404;BME280;19751;40.274;18.268;2023-04-05T06:50:17;100968.28;;;9.75;93.26
33404;BME280;19751;40.274;18.268;2023-04-05T06:52:42;100969.41;;;9.81;93.29
33404;BME280;19751;40.274;18.268;2023-04-05T06:55:08;100979.16;;;9.82;92.28
33404;BME280;19751;40.274;18.268;2023-04-05T06:57:33;100979.97;;;9.82;93.43
33404;BME280;19751;40.274;18.268;2023-04-05T06:59:59;100979.94;;;9.90;93.91
33404;BME280;19751;40.274;18.268;2023-04-05T07:02:25;100982.94;;;9.95;93.66
33404;BME280;19751;40.274;18.268;2023-04-05T07:04:53;100977.00;;;10.00;93.59
33404;BME280;19751;40.274;18.268;2023-04-05T07:07:19;100981.59;;;10.14;93.54
33404;BME280;19751;40.274;18.268;2023-04-05T07:09:44;100981.84;;;10.28;93.67
33404;BME280;19751;40.274;18.268;2023-04-05T07:12:10;100982.09;;;10.41;93.68
33404;BME280;19751;40.274;18.268;2023-04-05T07:14:36;100988.88;;;10.52;93.21
33404;BME280;19751;40.274;18.268;2023-04-05T07:17:03;100986.47;;;10.57;91.94
33404;BME280;19751;40.274;18.268;2023-04-05T07:19:30;100986.84;;;10.54;90.13
33404;BME280;19751;40.274;18.268;2023-04-05T07:21:55;100984.50;;;10.51;90.24
33404;BME280;19751;40.274;18.268;2023-04-05T07:24:21;100989.91;;;10.51;90.71
33404;BME280;19751;40.274;18.268;2023-04-05T07:26:47;100997.91;;;10.59;90.98
33404;BME280;19751;40.274;18.268;2023-04-05T07:29:12;100999.03;;;10.64;91.28
33404;BME280;19751;40.274;18.268;2023-04-05T07:31:38;101001.63;;;10.73;91.43
33404;BME280;19751;40.274;18.268;2023-04-05T07:34:04;100993.19;;;10.76;91.66
33404;BME280;19751;40.274;18.268;2023-04-05T07:36:31;100999.31;;;10.84;91.71
33404;BME280;19751;40.274;18.268;2023-04-05T07:38:57;101001.25;;;10.90;91.44
33404;BME280;19751;40.274;18.268;2023-04-05T07:41:27;100999.88;;;10.94;90.98
33404;BME280;19751;40.274;18.268;2023-04-05T07:43:56;100999.50;;;10.98;92.14
33404;BME280;19751;40.274;18.268;2023-04-05T07:46:22;100992.09;;;11.00;92.64
33404;BME280;19751;40.274;18.268;2023-04-05T07:48:48;101001.19;;;10.99;92.73
33404;BME280;19751;40.274;18.268;2023-04-05T07:51:14;101000.53;;;10.97;92.83
33404;BME280;19751;40.274;18.268;2023-04-05T07:53:39;101014.97;;;11.04;92.84
33404;BME280;19751;40.274;18.268;2023-04-05T07:56:06;101003.22;;;11.11;92.83
33404;BME280;19751;40.274;18.268;2023-04-05T07:58:33;100999.31;;;11.14;92.15
33404;BME280;19751;40.274;18.268;2023-04-05T08:01:00;101006.00;;;11.18;92.25
33404;BME280;19751;40.274;18.268;2023-04-05T08:03:26;101007.59;;;11.27;91.98
33404;BME280;19751;40.274;18.268;2023-04-05T08:05:51;101002.66;;;11.31;91.73
33404;BME280;19751;40.274;18.268;2023-04-05T08:08:17;101003.88;;;11.28;92.68
33404;BME280;19751;40.274;18.268;2023-04-05T08:10:42;101007.31;;;11.22;92.65
33404;BME280;19751;40.274;18.268;2023-04-05T08:13:08;101016.44;;;11.21;93.28
33404;BME280;19751;40.274;18.268;2023-04-05T08:15:34;101006.59;;;11.28;93.63
33404;BME280;19751;40.274;18.268;2023-04-05T08:18:00;101006.28;;;11.38;93.59
33404;BME280;19751;40.274;18.268;2023-04-05T08:20:25;101010.75;;;11.45;94.69
33404;BME280;19751;40.274;18.268;2023-04-05T08:22:51;101005.25;;;11.54;94.74
33404;BME280;19751;40.274;18.268;2023-04-05T08:25:16;101004.47;;;11.60;94.26
33404;BME280;19751;40.274;18.268;2023-04-05T08:27:42;101008.81;;;11.61;93.13
33404;BME280;19751;40.274;18.268;2023-04-05T08:30:07;101020.81;;;11.73;92.91
33404;BME280;19751;40.274;18.268;2023-04-05T08:32:34;101025.75;;;11.84;92.06
33404;BME280;19751;40.274;18.268;2023-04-05T08:34:59;101025.53;;;11.86;90.73
33404;BME280;19751;40.274;18.268;2023-04-05T08:37:25;101029.63;;;11.82;89.98
33404;BME280;19751;40.274;18.268;2023-04-05T08:39:51;101019.97;;;11.73;87.85
33404;BME280;19751;40.274;18.268;2023-04-05T08:42:28;101020.38;;;11.69;87.75
33404;BME280;19751;40.274;18.268;2023-04-05T08:44:56;101028.63;;;11.68;87.58
33404;BME280;19751;40.274;18.268;2023-04-05T08:47:23;101021.00;;;11.72;87.85
33404;BME280;19751;40.274;18.268;2023-04-05T08:49:49;101024.22;;;11.82;87.97
33404;BME280;19751;40.274;18.268;2023-04-05T08:52:15;101030.00;;;11.93;87.89
33404;BME280;19751;40.274;18.268;2023-04-05T08:54:40;101027.84;;;12.04;87.49
33404;BME280;19751;40.274;18.268;2023-04-05T08:57:07;101030.59;;;12.10;84.23
33404;BME280;19751;40.274;18.268;2023-04-05T08:59:37;101025.63;;;12.14;81.40
33404;BME280;19751;40.274;18.268;2023-04-05T09:02:18;101028.59;;;12.19;81.02
33404;BME280;19751;40.274;18.268;2023-04-05T09:04:47;101026.53;;;12.21;80.73
33404;BME280;19751;40.274;18.268;2023-04-05T09:07:13;101029.03;;;12.23;80.88
33404;BME280;19751;40.274;18.268;2023-04-05T09:09:44;101035.94;;;12.25;80.51
33404;BME280;19751;40.274;18.268;2023-04-05T09:12:10;101023.00;;;12.21;79.02
33404;BME280;19751;40.274;18.268;2023-04-05T09:14:37;101025.50;;;12.22;80.22
33404;BME280;19751;40.274;18.268;2023-04-05T09:17:03;101023.47;;;12.24;80.80
33404;BME280;19751;40.274;18.268;2023-04-05T09:19:29;101026.41;;;12.29;81.34
33404;BME280;19751;40.274;18.268;2023-04-05T09:22:05;101022.09;;;12.35;81.36
33404;BME280;19751;40.274;18.268;2023-04-05T09:29:38;101013.53;;;12.53;80.41
33404;BME280;19751;40.274;18.268;2023-04-05T09:32:04;101013.41;;;12.61;78.48
33404;BME280;19751;40.274;18.268;2023-04-05T09:34:31;101003.66;;;12.66;75.63
33404;BME280;19751;40.274;18.268;2023-04-05T09:36:58;100995.78;;;12.72;75.11
33404;BME280;19751;40.274;18.268;2023-04-05T09:39:31;100994.75;;;12.73;75.35
33404;BME280;19751;40.274;18.268;2023-04-05T09:42:11;100990.81;;;12.75;74.97
33404;BME280;19751;40.274;18.268;2023-04-05T09:44:55;101002.25;;;12.77;70.77
33404;BME280;19751;40.274;18.268;2023-04-05T09:47:30;100998.47;;;12.72;67.71
33404;BME280;19751;40.274;18.268;2023-04-05T09:49:58;101001.78;;;12.67;66.48
33404;BME280;19751;40.274;18.268;2023-04-05T09:52:29;100997.81;;;12.63;64.24
33404;BME280;19751;40.274;18.268;2023-04-05T09:55:00;100995.75;;;12.65;63.88
33404;BME280;19751;40.274;18.268;2023-04-05T09:57:26;100996.44;;;12.74;64.27
33404;BME280;19751;40.274;18.268;2023-04-05T09:59:52;100996.47;;;12.80;64.01
33404;BME280;19751;40.274;18.268;2023-04-05T10:02:18;100994.44;;;12.89;64.65
33404;BME280;19751;40.274;18.268;2023-04-05T10:04:45;100996.16;;;12.97;62.12
33404;BME280;19751;40.274;18.268;2023-04-05T10:07:13;100995.56;;;13.01;61.90
33404;BME280;19751;40.274;18.268;2023-04-05T10:09:40;101004.09;;;13.05;62.18
33404;BME280;19751;40.274;18.268;2023-04-05T10:12:07;100997.03;;;13.04;62.15
33404;BME280;19751;40.274;18.268;2023-04-05T10:14:34;100998.91;;;13.03;60.73
33404;BME280;19751;40.274;18.268;2023-04-05T10:19:56;101002.81;;;12.94;57.15
33404;BME280;19751;40.274;18.268;2023-04-05T10:28:09;101006.84;;;12.77;54.48
33404;BME280;19751;40.274;18.268;2023-04-05T10:30:40;101004.09;;;12.70;55.52
33404;BME280;19751;40.274;18.268;2023-04-05T10:33:28;101004.69;;;12.65;56.23
33404;BME280;19751;40.274;18.268;2023-04-05T10:39:12;101011.31;;;12.63;57.12
33404;BME280;19751;40.274;18.268;2023-04-05T10:41:46;101004.47;;;12.67;57.59
33404;BME280;19751;40.274;18.268;2023-04-05T10:44:13;101005.38;;;12.74;57.49
33404;BME280;19751;40.274;18.268;2023-04-05T10:46:40;101001.69;;;12.82;57.83
33404;BME280;19751;40.274;18.268;2023-04-05T10:49:41;100992.78;;;12.88;58.10
33404;BME280;19751;40.274;18.268;2023-04-05T10:52:08;100993.22;;;12.91;57.81
33404;BME280;19751;40.274;18.268;2023-04-05T10:54:34;100996.13;;;12.90;57.42
33404;BME280;19751;40.274;18.268;2023-04-05T10:57:06;100994.44;;;12.89;57.19
33404;BME280;19751;40.274;18.268;2023-04-05T10:59:33;100993.22;;;12.91;56.15
33404;BME280;19751;40.274;18.268;2023-04-05T11:02:01;100996.81;;;12.99;56.53
33404;BME280;19751;40.274;18.268;2023-04-05T11:04:27;100990.78;;;13.03;55.59
33404;BME280;19751;40.274;18.268;2023-04-05T11:07:12;100997.75;;;13.19;55.67
33404;BME280;19751;40.274;18.268;2023-04-05T11:09:49;100996.81;;;13.33;55.74
33404;BME280;19751;40.274;18.268;2023-04-05T11:12:15;100999.53;;;13.40;54.56
33404;BME280;19751;40.274;18.268;2023-04-05T11:14:41;100993.75;;;13.50;54.90
33404;BME280;19751;40.274;18.268;2023-04-05T11:17:25;101001.91;;;13.56;53.79
33404;BME280;19751;40.274;18.268;2023-04-05T11:19:51;101003.34;;;13.59;53.40
33404;BME280;19751;40.274;18.268;2023-04-05T11:22:28;101002.56;;;13.65;52.39
33404;BME280;19751;40.274;18.268;2023-04-05T11:24:56;100996.72;;;13.68;51.39
33404;BME280;19751;40.274;18.268;2023-04-05T11:27:34;100993.81;;;13.70;51.89
33404;BME280;19751;40.274;18.268;2023-04-05T11:30:05;100992.16;;;13.68;51.97
33404;BME280;19751;40.274;18.268;2023-04-05T11:32:42;100993.63;;;13.84;52.33
33404;BME280;19751;40.274;18.268;2023-04-05T11:35:15;100987.63;;;13.96;51.18
33404;BME280;19751;40.274;18.268;2023-04-05T11:38:05;100989.31;;;14.03;50.73
33404;BME280;19751;40.274;18.268;2023-04-05T11:40:36;100992.25;;;14.02;49.93
33404;BME280;19751;40.274;18.268;2023-04-05T11:43:06;100993.69;;;13.98;50.42
33404;BME280;19751;40.274;18.268;2023-04-05T11:45:34;100989.09;;;13.98;50.98
33404;BME280;19751;40.274;18.268;2023-04-05T11:48:11;100981.59;;;13.93;51.32
33404;BME280;19751;40.274;18.268;2023-04-05T11:50:39;100984.31;;;13.93;51.09
33404;BME280;19751;40.274;18.268;2023-04-05T11:53:16;100989.50;;;13.95;50.48
33404;BME280;19751;40.274;18.268;2023-04-05T11:55:46;100987.63;;;13.96;50.08
33404;BME280;19751;40.274;18.268;2023-04-05T11:58:17;100984.31;;;13.93;50.22
33404;BME280;19751;40.274;18.268;2023-04-05T12:00:44;100984.06;;;13.88;50.29
33404;BME280;19751;40.274;18.268;2023-04-05T12:03:11;100982.19;;;13.89;51.12
33404;BME280;19751;40.274;18.268;2023-04-05T12:05:48;100989.47;;;13.88;51.06
33404;BME280;19751;40.274;18.268;2023-04-05T12:08:13;100985.50;;;13.84;52.54
33404;BME280;19751;40.274;18.268;2023-04-05T12:10:39;100986.97;;;13.80;53.83
33404;BME280;19751;40.274;18.268;2023-04-05T12:13:05;100980.72;;;13.73;55.41
33404;BME280;19751;40.274;18.268;2023-04-05T12:15:30;100982.56;;;13.66;56.88
33404;BME280;19751;40.274;18.268;2023-04-05T12:17:56;100974.22;;;13.61;57.40
33404;BME280;19751;40.274;18.268;2023-04-05T12:20:23;100990.22;;;13.56;58.08
33404;BME280;19751;40.274;18.268;2023-04-05T12:22:51;100979.00;;;13.52;58.47
33404;BME280;19751;40.274;18.268;2023-04-05T12:25:17;100983.53;;;13.52;59.74
33404;BME280;19751;40.274;18.268;2023-04-05T12:27:44;100973.75;;;13.51;62.00
33404;BME280;19751;40.274;18.268;2023-04-05T12:30:17;100982.09;;;13.49;62.02
33404;BME280;19751;40.274;18.268;2023-04-05T12:32:53;100980.63;;;13.47;62.25
33404;BME280;19751;40.274;18.268;2023-04-05T12:35:24;100984.38;;;13.46;61.97
33404;BME280;19751;40.274;18.268;2023-04-05T12:37:57;100979.34;;;13.42;62.00
33404;BME280;19751;40.274;18.268;2023-04-05T12:40:23;100973.94;;;13.42;62.58
33404;BME280;19751;40.274;18.268;2023-04-05T12:42:53;100971.63;;;13.39;63.04
33404;BME280;19751;40.274;18.268;2023-04-05T12:45:26;100975.59;;;13.37;63.06
33404;BME280;19751;40.274;18.268;2023-04-05T12:47:58;100974.94;;;13.35;63.62
33404;BME280;19751;40.274;18.268;2023-04-05T12:50:29;100974.31;;;13.33;63.68
33404;BME280;19751;40.274;18.268;2023-04-05T12:52:58;100972.00;;;13.30;64.63
33404;BME280;19751;40.274;18.268;2023-04-05T12:55:27;100974.28;;;13.26;64.57
33404;BME280;19751;40.274;18.268;2023-04-05T12:57:54;100968.63;;;13.21;64.17
33404;BME280;19751;40.274;18.268;2023-04-05T13:00:21;100966.75;;;13.22;64.03
33404;BME280;19751;40.274;18.268;2023-04-05T13:02:51;100962.38;;;13.21;64.12
33404;BME280;19751;40.274;18.268;2023-04-05T13:05:21;100958.47;;;13.23;64.02
33404;BME280;19751;40.274;18.268;2023-04-05T13:07:47;100958.28;;;13.25;63.64
33404;BME280;19751;40.274;18.268;2023-04-05T13:10:13;100957.88;;;13.28;63.61
33404;BME280;19751;40.274;18.268;2023-04-05T13:12:38;100952.03;;;13.31;64.17
33404;BME280;19751;40.274;18.268;2023-04-05T13:15:04;100956.22;;;13.33;63.83
33404;BME280;19751;40.274;18.268;2023-04-05T13:17:30;100955.81;;;13.36;63.77